Terminal Aerodrome Forecast
Issued by NWS

Home | Current Version | Previous Version | Text Only | Print | Product List | Glossary Off
Versions: 1 2 3 4 5 6 7 8 9 10 11 12 13 14 15 16 17 18 19 20 21 22 23 24 25 26 27

000
FTUS43 KGRB 230808 AAC
TAFATW
TAF AMD
KATW 230808Z 2308/2406 10007KT P6SM BKN030 BKN100
      TEMPO 2308/2309 1SM -TSRA OVC020CB
     FM231200 06005KT 6SM -RA BR OVC025
     FM232100 04009KT 5SM -RA BR OVC015
     FM240500 03008KT 6SM BR BKN015 OVC040=

USA.gov is the U.S. government's official web portal to all federal, state and local government web resources and services.